createdAt,value
2018-01-31T01:53:15.971Z,7.60
2018-01-31T01:55:43.521Z,7.60
2018-01-31T01:58:11.033Z,7.60
2018-01-31T02:03:29.710Z,7.60
2018-01-31T02:05:58.035Z,7.60
2018-01-31T02:08:27.056Z,7.50
2018-01-31T02:10:54.621Z,7.50
2018-01-31T02:13:22.156Z,7.50
2018-01-31T02:15:49.691Z,7.40
2018-01-31T02:18:17.247Z,7.50
2018-01-31T02:20:44.759Z,7.50
2018-01-31T02:23:13.088Z,7.50
2018-01-31T02:25:40.603Z,7.50
2018-01-31T02:28:08.150Z,7.50
2018-01-31T02:30:36.453Z,7.50
2018-01-31T02:33:04.008Z,7.50
2018-01-31T02:35:32.214Z,7.50
2018-01-31T02:37:59.767Z,7.60
2018-01-31T02:40:27.285Z,7.60
2018-01-31T02:42:55.560Z,7.60
2018-01-31T02:45:23.104Z,7.50
2018-01-31T02:47:51.367Z,7.60
2018-01-31T02:50:18.908Z,7.50
2018-01-31T02:52:47.207Z,7.70
2018-01-31T02:55:15.480Z,7.60
2018-01-31T02:57:42.982Z,7.70
2018-01-31T03:00:10.522Z,7.70
2018-01-31T03:02:38.799Z,7.60
2018-01-31T03:05:07.150Z,7.60
2018-01-31T03:07:34.664Z,7.60
2018-01-31T03:10:02.900Z,7.60
2018-01-31T03:12:30.453Z,7.60
2018-01-31T03:14:58.002Z,7.60
2018-01-31T03:17:27.184Z,7.60
2018-01-31T03:19:54.700Z,7.50
2018-01-31T03:22:23.007Z,7.50
2018-01-31T03:24:50.542Z,7.60
2018-01-31T03:27:18.087Z,7.50
2018-01-31T03:29:45.598Z,7.50
2018-01-31T03:32:13.916Z,7.50
2018-01-31T03:34:42.632Z,7.50
2018-01-31T03:37:10.155Z,7.50
2018-01-31T03:39:38.496Z,7.50
2018-01-31T03:42:06.003Z,7.60
2018-01-31T03:44:33.995Z,7.70
2018-01-31T03:47:02.459Z,7.70
2018-01-31T03:49:30.006Z,7.80
2018-01-31T03:51:57.512Z,7.80
2018-01-31T03:54:25.028Z,7.90
2018-01-31T03:56:52.573Z,7.90
2018-01-31T03:59:20.072Z,8.00
2018-01-31T04:01:48.411Z,8.00
2018-01-31T04:04:15.929Z,8.10
2018-01-31T04:06:43.470Z,8.20
2018-01-31T04:09:11.842Z,8.30
2018-01-31T04:11:39.358Z,8.40
2018-01-31T04:14:06.900Z,8.50
2018-01-31T04:16:34.405Z,8.50
2018-01-31T04:19:02.711Z,8.70
2018-01-31T04:21:30.221Z,8.70
2018-01-31T04:23:58.559Z,8.70
2018-01-31T04:26:26.830Z,8.70
2018-01-31T04:28:55.148Z,8.70
2018-01-31T04:31:23.397Z,8.70
2018-01-31T04:33:50.908Z,8.80
2018-01-31T04:36:19.202Z,8.90
2018-01-31T04:38:46.708Z,8.90
2018-01-31T04:41:14.244Z,8.90
2018-01-31T04:43:41.751Z,8.90
2018-01-31T04:46:09.294Z,8.90
2018-01-31T04:48:36.824Z,9.00
2018-01-31T04:51:04.367Z,9.00
2018-01-31T04:53:31.887Z,9.00
2018-01-31T04:55:59.443Z,9.10
2018-01-31T04:58:26.948Z,9.10
2018-01-31T05:00:54.515Z,9.10
2018-01-31T05:03:22.551Z,9.10
2018-01-31T05:05:50.068Z,9.00
2018-01-31T05:08:17.612Z,9.10
2018-01-31T05:10:45.127Z,9.10
2018-01-31T05:13:12.668Z,9.10
2018-01-31T05:15:40.176Z,9.10
2018-01-31T05:18:07.719Z,9.10
2018-01-31T05:20:35.223Z,9.10
2018-01-31T05:23:02.817Z,9.10
2018-01-31T05:25:30.325Z,9.00
2018-01-31T05:27:57.835Z,9.00
2018-01-31T05:30:26.084Z,9.00
2018-01-31T05:32:53.591Z,9.10
2018-01-31T05:35:21.619Z,9.20
2018-01-31T05:37:49.136Z,9.20
2018-01-31T05:40:16.684Z,9.20
2018-01-31T05:42:44.972Z,9.10
2018-01-31T05:45:13.083Z,9.10
2018-01-31T05:47:40.606Z,9.20
2018-01-31T05:50:08.146Z,9.20
2018-01-31T05:52:35.674Z,9.30
2018-01-31T05:55:03.998Z,9.20
2018-01-31T05:57:31.524Z,9.20
2018-01-31T05:59:59.075Z,9.30
2018-01-31T06:02:28.151Z,9.30
2018-01-31T06:04:55.665Z,9.30
2018-01-31T06:07:23.211Z,9.30
2018-01-31T06:09:50.727Z,9.30
2018-01-31T06:12:19.035Z,9.30
2018-01-31T06:14:47.310Z,9.30
2018-01-31T06:17:16.796Z,9.40
2018-01-31T06:19:44.308Z,9.30
2018-01-31T06:22:13.030Z,9.40
2018-01-31T06:24:40.563Z,9.40
2018-01-31T06:27:08.135Z,9.40
2018-01-31T06:29:35.654Z,9.40
2018-01-31T06:32:03.167Z,9.30
2018-01-31T06:34:30.727Z,9.40
2018-01-31T06:36:58.240Z,9.40
2018-01-31T06:39:25.793Z,9.40
2018-01-31T06:41:53.326Z,9.50
2018-01-31T06:44:20.889Z,9.50
2018-01-31T06:46:48.408Z,9.50
2018-01-31T06:49:15.973Z,9.50
2018-01-31T06:51:43.495Z,9.50
2018-01-31T06:54:11.638Z,9.40
2018-01-31T06:56:39.151Z,9.40
2018-01-31T06:59:06.707Z,9.30
2018-01-31T07:01:34.236Z,9.30
2018-01-31T07:04:01.822Z,9.40
2018-01-31T07:06:29.335Z,9.40
2018-01-31T07:08:56.847Z,9.40
2018-01-31T07:11:24.389Z,9.50
2018-01-31T07:13:51.908Z,9.50
2018-01-31T07:16:20.028Z,9.60
2018-01-31T07:18:47.543Z,9.60
2018-01-31T07:21:15.107Z,9.70
2018-01-31T07:23:42.618Z,9.60
2018-01-31T07:26:10.951Z,9.70
2018-01-31T07:28:38.456Z,9.70
2018-01-31T07:31:06.013Z,9.70
2018-01-31T07:33:33.584Z,9.60
2018-01-31T07:36:01.974Z,9.60
2018-01-31T07:38:30.407Z,9.60
2018-01-31T07:40:57.923Z,9.60
2018-01-31T07:43:25.472Z,9.60
2018-01-31T07:45:53.745Z,9.70
2018-01-31T07:48:23.176Z,9.70
2018-01-31T07:50:50.691Z,9.70
2018-01-31T07:53:18.243Z,9.70
2018-01-31T07:55:45.750Z,9.70
2018-01-31T07:58:13.319Z,9.70
2018-01-31T08:00:40.832Z,9.70
2018-01-31T08:03:09.103Z,9.80
2018-01-31T08:05:37.431Z,9.80
2018-01-31T08:08:04.946Z,9.90
2018-01-31T08:10:32.485Z,9.90
2018-01-31T08:13:00.024Z,10.00
2018-01-31T08:15:28.334Z,10.00
2018-01-31T08:17:55.839Z,9.90
2018-01-31T08:20:23.391Z,10.00
2018-01-31T08:22:50.902Z,10.10
2018-01-31T08:25:18.447Z,10.10
2018-01-31T08:27:45.960Z,10.20
2018-01-31T08:30:13.514Z,10.30
2018-01-31T08:32:41.031Z,10.30
2018-01-31T08:35:09.358Z,10.40
2018-01-31T08:37:36.932Z,10.40
2018-01-31T08:40:04.446Z,10.50
2018-01-31T08:42:32.008Z,10.40
2018-01-31T08:45:00.245Z,10.40
2018-01-31T08:47:27.815Z,10.30
2018-01-31T08:49:55.328Z,10.30
2018-01-31T08:52:22.872Z,10.10
2018-01-31T08:54:50.382Z,10.10
2018-01-31T08:57:17.947Z,10.10
2018-01-31T08:59:45.463Z,10.10
2018-01-31T09:02:13.003Z,10.00
2018-01-31T09:04:40.519Z,10.00
2018-01-31T09:07:08.063Z,10.00
2018-01-31T09:09:35.575Z,10.10
2018-01-31T09:12:03.163Z,10.10
2018-01-31T09:14:30.668Z,10.20
2018-01-31T09:16:58.198Z,10.20
2018-01-31T09:19:25.750Z,10.20
2018-01-31T09:21:54.418Z,10.20
2018-01-31T09:24:21.964Z,10.30
2018-01-31T09:26:49.486Z,10.30
2018-01-31T09:29:17.855Z,10.40
2018-01-31T09:31:45.362Z,10.40
2018-01-31T09:34:12.938Z,10.50
2018-01-31T09:36:41.209Z,10.50
2018-01-31T09:39:08.759Z,10.60
2018-01-31T09:41:37.052Z,10.60
2018-01-31T09:44:06.116Z,10.60
2018-01-31T09:46:33.625Z,10.60
2018-01-31T09:49:01.179Z,10.60
2018-01-31T09:51:28.702Z,10.60
2018-01-31T09:53:56.255Z,10.60
2018-01-31T09:56:24.543Z,10.70
2018-01-31T09:58:55.687Z,10.80
2018-01-31T10:01:24.875Z,10.80
2018-01-31T10:03:53.552Z,10.80
2018-01-31T10:06:21.113Z,10.90
2018-01-31T10:08:48.623Z,10.90
2018-01-31T10:11:16.212Z,10.90
2018-01-31T10:13:43.695Z,10.90
2018-01-31T10:16:12.159Z,10.90
2018-01-31T10:18:40.473Z,10.90
2018-01-31T10:21:09.972Z,10.70
2018-01-31T10:23:37.479Z,10.70
2018-01-31T10:26:05.048Z,10.70
2018-01-31T10:28:33.326Z,10.80
2018-01-31T10:31:02.173Z,10.80
2018-01-31T10:33:29.720Z,10.80
2018-01-31T10:35:57.235Z,10.90
2018-01-31T10:38:24.782Z,10.90
2018-01-31T10:40:52.311Z,10.90
2018-01-31T10:43:20.623Z,10.80
2018-01-31T10:45:48.143Z,10.80
2018-01-31T10:48:15.693Z,10.70
2018-01-31T10:50:44.627Z,10.60
2018-01-31T10:53:12.191Z,10.50
2018-01-31T10:58:07.318Z,10.50
2018-01-31T11:00:36.003Z,10.60
2018-01-31T11:03:03.572Z,10.70
2018-01-31T11:05:31.864Z,10.70
2018-01-31T11:07:59.391Z,10.70
2018-01-31T11:10:26.944Z,10.80
2018-01-31T11:12:54.450Z,10.80
2018-01-31T11:15:21.987Z,10.90
2018-01-31T11:17:49.492Z,10.80
2018-01-31T11:20:17.043Z,10.80
2018-01-31T11:22:45.116Z,10.80
2018-01-31T11:25:13.254Z,10.80
2018-01-31T11:27:40.788Z,10.70
2018-01-31T11:30:08.315Z,10.60
2018-01-31T11:32:36.171Z,10.50
2018-01-31T11:35:03.696Z,10.50
2018-01-31T11:37:31.299Z,10.50
2018-01-31T11:39:59.578Z,10.40
2018-01-31T11:42:27.143Z,10.40
2018-01-31T11:44:55.871Z,10.40
2018-01-31T11:47:24.191Z,10.40
2018-01-31T11:49:51.720Z,10.40
2018-01-31T11:52:19.287Z,10.40
2018-01-31T11:54:46.865Z,10.40
2018-01-31T11:57:14.353Z,10.40
2018-01-31T11:59:41.904Z,10.40
2018-01-31T12:02:09.415Z,10.40
2018-01-31T12:04:36.976Z,10.50
2018-01-31T12:07:05.252Z,10.50
2018-01-31T12:09:36.474Z,10.50
2018-01-31T12:12:03.979Z,10.40
2018-01-31T12:14:43.226Z,10.40
2018-01-31T12:17:11.506Z,10.40
2018-01-31T12:19:50.670Z,10.40
2018-01-31T12:22:23.703Z,10.40
2018-01-31T12:25:02.919Z,10.40
2018-01-31T12:27:42.894Z,10.50
2018-01-31T12:30:22.128Z,10.50
2018-01-31T12:33:02.095Z,10.60
2018-01-31T12:35:42.647Z,10.60
2018-01-31T12:41:19.282Z,10.60
2018-01-31T12:43:46.302Z,10.60
2018-01-31T12:46:25.571Z,10.60
2018-01-31T12:49:04.625Z,10.70
2018-01-31T12:51:44.983Z,10.70
2018-01-31T12:54:24.327Z,10.70
2018-01-31T12:57:03.737Z,10.70
2018-01-31T12:59:43.017Z,10.60
2018-01-31T13:02:23.079Z,10.70
2018-01-31T13:05:02.494Z,10.70
2018-01-31T13:07:42.879Z,10.70
2018-01-31T13:13:28.405Z,10.70
2018-01-31T13:16:10.624Z,10.70
2018-01-31T13:18:49.943Z,10.70
2018-01-31T13:21:29.206Z,10.70
2018-01-31T13:27:27.340Z,10.70
2018-01-31T13:30:06.735Z,10.60
2018-01-31T13:32:46.069Z,10.60
2018-01-31T13:35:25.373Z,10.60
2018-01-31T13:38:11.497Z,10.50
2018-01-31T13:40:51.628Z,10.50
2018-01-31T13:43:30.905Z,10.40
2018-01-31T13:46:10.935Z,10.40
2018-01-31T13:48:57.331Z,10.20
2018-01-31T13:51:37.694Z,10.00
2018-01-31T13:54:17.120Z,10.00
2018-01-31T13:56:56.387Z,9.80
2018-01-31T13:59:35.494Z,9.70
2018-01-31T14:02:14.801Z,9.70
2018-01-31T14:04:54.042Z,9.70
2018-01-31T14:07:34.147Z,9.70
2018-01-31T14:10:13.583Z,9.70
2018-01-31T14:12:52.894Z,9.70
2018-01-31T14:15:32.073Z,9.70
2018-01-31T14:18:11.565Z,9.70
2018-01-31T14:20:52.392Z,9.70
2018-01-31T14:23:31.580Z,9.70
2018-01-31T14:26:10.867Z,9.70
2018-01-31T14:28:50.321Z,9.60
2018-01-31T14:31:29.408Z,9.60
2018-01-31T14:34:08.849Z,9.50
2018-01-31T14:36:35.859Z,9.40
2018-01-31T14:39:04.127Z,9.40
2018-01-31T14:41:36.253Z,9.40
2018-01-31T14:44:03.432Z,9.30
2018-01-31T14:46:30.451Z,9.30
2018-01-31T14:48:57.500Z,9.20
2018-01-31T14:51:24.519Z,9.20
2018-01-31T14:53:51.566Z,9.10
2018-01-31T14:56:18.591Z,9.00
2018-01-31T14:58:46.431Z,8.90
2018-01-31T15:01:13.458Z,8.90
2018-01-31T15:03:40.475Z,8.80
2018-01-31T15:06:08.295Z,8.70
2018-01-31T15:08:35.317Z,8.70
2018-01-31T15:11:02.376Z,8.70
2018-01-31T15:13:29.395Z,8.60
2018-01-31T15:15:56.441Z,8.60
2018-01-31T15:18:23.459Z,8.50
2018-01-31T15:20:51.938Z,8.40
2018-01-31T15:23:18.951Z,8.40
2018-01-31T15:25:45.970Z,8.40
2018-01-31T15:28:13.996Z,8.30
2018-01-31T15:30:41.053Z,8.10
2018-01-31T15:33:08.111Z,7.90
2018-01-31T15:35:35.134Z,7.80
2018-01-31T15:38:02.199Z,7.70
2018-01-31T15:40:30.056Z,7.50
2018-01-31T15:42:57.167Z,7.50
2018-01-31T15:45:24.209Z,7.50
2018-01-31T15:47:52.004Z,7.30
2018-01-31T15:50:19.067Z,7.30
2018-01-31T15:52:46.099Z,7.40
2018-01-31T15:55:13.932Z,7.30
2018-01-31T15:57:40.963Z,7.20
2018-01-31T16:00:08.125Z,7.20
2018-01-31T16:02:36.336Z,7.20
2018-01-31T16:05:03.392Z,7.20
2018-01-31T16:07:30.416Z,7.20
2018-01-31T16:09:58.283Z,7.10
2018-01-31T16:12:25.299Z,7.10
2018-01-31T16:14:52.324Z,6.90
2018-01-31T16:17:22.777Z,6.80
2018-01-31T16:20:03.273Z,6.60
2018-01-31T16:22:30.800Z,6.50
2018-01-31T16:24:59.078Z,6.40
2018-01-31T16:27:27.571Z,6.40
2018-01-31T16:30:12.748Z,6.30
2018-01-31T16:35:47.211Z,6.20
2018-01-31T16:38:14.719Z,6.10
2018-01-31T16:40:42.989Z,6.10
2018-01-31T16:43:10.579Z,6.10
2018-01-31T16:45:38.861Z,6.00
2018-01-31T16:48:07.188Z,6.00
2018-01-31T16:50:34.716Z,6.00
2018-01-31T16:53:02.281Z,6.00
2018-01-31T16:55:29.820Z,6.00
2018-01-31T16:57:57.475Z,6.00
2018-01-31T17:00:25.018Z,5.90
2018-01-31T17:02:52.547Z,5.90
2018-01-31T17:05:20.403Z,5.80
2018-01-31T17:07:48.031Z,5.70
2018-01-31T17:10:15.852Z,5.80
2018-01-31T17:12:43.411Z,5.70
2018-01-31T17:15:10.995Z,5.70
2018-01-31T17:17:39.433Z,5.60
2018-01-31T17:20:06.993Z,5.60
2018-01-31T17:22:34.736Z,5.50
2018-01-31T17:27:55.290Z,5.50
2018-01-31T17:30:22.813Z,5.50
2018-01-31T17:32:52.067Z,5.50
2018-01-31T17:35:19.605Z,5.50
2018-01-31T17:37:49.293Z,5.50
2018-01-31T17:40:16.824Z,5.40
2018-01-31T17:42:44.371Z,5.40
2018-01-31T17:45:11.887Z,5.40
2018-01-31T17:47:39.474Z,5.40
2018-01-31T17:50:06.987Z,5.40
2018-01-31T17:52:34.535Z,5.40
2018-01-31T17:55:02.065Z,5.40
2018-01-31T17:57:29.621Z,5.30
2018-01-31T17:59:57.151Z,5.30
2018-01-31T18:02:27.555Z,5.40
2018-01-31T18:04:55.115Z,5.40
2018-01-31T18:07:22.648Z,5.40
2018-01-31T18:09:50.202Z,5.40
2018-01-31T18:12:17.707Z,5.40
2018-01-31T18:14:47.167Z,5.40
2018-01-31T18:17:15.455Z,5.40
2018-01-31T18:19:42.991Z,5.40
2018-01-31T18:22:10.494Z,5.40
2018-01-31T18:24:38.800Z,5.40
2018-01-31T18:27:06.326Z,5.40
2018-01-31T18:29:34.653Z,5.40
2018-01-31T18:32:02.163Z,5.40
2018-01-31T18:34:33.237Z,5.40
2018-01-31T18:37:01.543Z,5.40
2018-01-31T18:39:29.245Z,5.40
2018-01-31T18:41:56.769Z,5.30
2018-01-31T18:44:25.088Z,5.30
2018-01-31T18:46:53.181Z,5.20
2018-01-31T18:49:20.693Z,5.20
2018-01-31T18:51:48.256Z,5.20
2018-01-31T18:54:16.550Z,5.30
2018-01-31T18:56:44.115Z,5.20
2018-01-31T18:59:12.995Z,5.20
2018-01-31T19:01:40.555Z,5.20
2018-01-31T19:04:08.819Z,5.20
2018-01-31T19:06:38.111Z,5.30
2018-01-31T19:09:05.623Z,5.30
2018-01-31T19:11:33.759Z,5.30
2018-01-31T19:14:01.271Z,5.30
2018-01-31T19:16:29.565Z,5.10
2018-01-31T19:18:57.127Z,5.10
2018-01-31T19:21:25.415Z,5.00
2018-01-31T19:23:53.750Z,5.10
2018-01-31T19:26:23.188Z,5.10
2018-01-31T19:28:50.772Z,5.10
2018-01-31T19:31:18.287Z,5.20
2018-01-31T19:33:47.559Z,5.20
2018-01-31T19:36:15.091Z,5.10
2018-01-31T19:38:42.655Z,5.10
2018-01-31T19:41:10.188Z,5.00
2018-01-31T19:43:37.707Z,5.10
2018-01-31T19:46:07.007Z,5.10
2018-01-31T19:48:34.520Z,5.10
2018-01-31T19:51:05.759Z,5.10
2018-01-31T19:53:33.271Z,5.10
2018-01-31T19:56:01.797Z,5.10
2018-01-31T19:58:31.376Z,5.20
2018-01-31T20:00:58.930Z,5.20
2018-01-31T20:03:26.441Z,5.10
2018-01-31T20:05:54.820Z,5.30
2018-01-31T20:08:22.335Z,5.20
2018-01-31T20:10:49.860Z,5.20
2018-01-31T20:13:17.416Z,5.10
2018-01-31T20:15:44.927Z,5.10
2018-01-31T20:18:13.291Z,5.00
2018-01-31T20:20:41.613Z,5.00
2018-01-31T20:23:10.332Z,4.90
2018-01-31T20:25:37.856Z,4.90
2018-01-31T20:28:05.406Z,4.90
2018-01-31T20:30:32.923Z,5.00
2018-01-31T20:33:01.247Z,5.00
2018-01-31T20:35:29.501Z,4.90
2018-01-31T20:37:57.823Z,5.10
2018-01-31T20:40:25.399Z,5.10
2018-01-31T20:42:52.915Z,5.10
2018-01-31T20:45:20.460Z,5.20
2018-01-31T20:47:48.679Z,5.20
2018-01-31T20:50:17.194Z,5.30
2018-01-31T20:52:46.202Z,5.40
2018-01-31T20:55:13.853Z,5.40
2018-01-31T20:57:42.993Z,5.40
2018-01-31T21:00:10.559Z,5.50
2018-01-31T21:02:38.851Z,5.60
2018-01-31T21:05:07.546Z,5.40
2018-01-31T21:07:36.052Z,5.40
2018-01-31T21:10:03.747Z,5.10
2018-01-31T21:12:31.433Z,4.70
2018-01-31T21:14:59.015Z,4.50
2018-01-31T21:17:26.585Z,4.40
2018-01-31T21:19:54.993Z,4.30
2018-01-31T21:22:22.553Z,4.20
2018-01-31T21:24:50.066Z,4.10
2018-01-31T21:27:18.376Z,4.10
2018-01-31T21:29:45.914Z,4.10
2018-01-31T21:32:13.486Z,4.00
2018-01-31T21:34:40.995Z,4.00
2018-01-31T21:37:08.840Z,4.00
2018-01-31T21:39:36.517Z,4.00
2018-01-31T21:42:04.808Z,4.00
2018-01-31T21:44:36.863Z,4.00
2018-01-31T21:47:04.367Z,4.00
2018-01-31T21:49:32.670Z,4.00
2018-01-31T21:52:00.251Z,4.00
2018-01-31T21:54:27.791Z,4.00
2018-01-31T21:57:00.675Z,4.10
2018-01-31T21:59:28.836Z,4.10
2018-01-31T22:01:57.271Z,4.20
2018-01-31T22:04:24.946Z,4.20
2018-01-31T22:06:53.360Z,4.30
2018-01-31T22:09:20.907Z,4.30
2018-01-31T22:11:48.470Z,4.30
2018-01-31T22:14:16.719Z,4.30
2018-01-31T22:16:44.260Z,4.20
2018-01-31T22:19:12.537Z,4.00
2018-01-31T22:21:43.167Z,4.00
2018-01-31T22:24:10.744Z,4.00
2018-01-31T22:26:38.300Z,4.00
2018-01-31T22:29:05.811Z,3.90
2018-01-31T22:31:33.359Z,3.80
2018-01-31T22:34:01.659Z,3.80
2018-01-31T22:36:29.211Z,3.70
2018-01-31T22:38:56.830Z,3.70
2018-01-31T22:41:25.283Z,3.60
2018-01-31T22:43:53.193Z,3.60
2018-01-31T22:46:22.531Z,3.50
2018-01-31T22:48:50.141Z,3.50
2018-01-31T22:51:17.643Z,3.50
2018-01-31T22:53:45.187Z,3.40
2018-01-31T22:56:12.699Z,3.50
2018-01-31T22:58:41.024Z,3.40
2018-01-31T23:01:08.535Z,3.40
2018-01-31T23:03:36.098Z,3.40
2018-01-31T23:06:04.523Z,3.40
2018-01-31T23:08:32.035Z,3.30
2018-01-31T23:11:00.135Z,3.30
2018-01-31T23:13:27.651Z,3.30
2018-01-31T23:15:55.196Z,3.20
2018-01-31T23:18:22.726Z,3.20
2018-01-31T23:20:50.269Z,3.20
2018-01-31T23:23:18.547Z,3.20
2018-01-31T23:25:46.094Z,3.20
2018-01-31T23:28:13.600Z,3.20
2018-01-31T23:30:41.679Z,3.20
2018-01-31T23:33:09.231Z,3.20
2018-01-31T23:35:36.735Z,3.20
2018-01-31T23:38:05.969Z,3.10
2018-01-31T23:40:33.517Z,3.10
2018-01-31T23:43:01.087Z,3.20
2018-01-31T23:45:29.363Z,3.10
2018-01-31T23:47:56.880Z,3.00
2018-01-31T23:50:24.415Z,3.00
2018-01-31T23:52:54.830Z,3.00
2018-01-31T23:55:23.140Z,3.00
2018-01-31T23:57:51.832Z,3.00
